createdAt,value
2019-01-04T00:00:26.072Z,101357.00
2019-01-04T00:02:55.186Z,101367.00
2019-01-04T00:05:24.659Z,101377.00
2019-01-04T00:07:53.712Z,101387.00
2019-01-04T00:10:23.115Z,101388.00
2019-01-04T00:12:52.452Z,101388.00
2019-01-04T00:15:21.593Z,101381.00
2019-01-04T00:17:50.927Z,101380.00
2019-01-04T00:20:20.045Z,101383.00
2019-01-04T00:22:49.399Z,101376.00
2019-01-04T00:25:18.789Z,101372.00
2019-01-04T00:27:47.876Z,101384.00
2019-01-04T00:30:17.103Z,101390.00
2019-01-04T00:32:46.200Z,101396.00
2019-01-04T00:35:15.314Z,101399.00
2019-01-04T00:37:44.663Z,101402.00
2019-01-04T00:40:13.748Z,101400.00
2019-01-04T00:42:43.130Z,101407.00
2019-01-04T00:45:12.222Z,101402.00
2019-01-04T00:47:41.347Z,101401.00
2019-01-04T00:50:10.469Z,101402.00
2019-01-04T00:52:39.843Z,101393.00
2019-01-04T00:55:16.797Z,101399.00
2019-01-04T00:58:14.766Z,101404.00
2019-01-04T01:00:54.539Z,101402.00
2019-01-04T01:04:04.378Z,101407.00
2019-01-04T01:06:59.328Z,101410.00
2019-01-04T01:09:51.338Z,101407.00
2019-01-04T01:12:43.091Z,101404.00
2019-01-04T01:15:29.463Z,101408.00
2019-01-04T01:18:30.718Z,101397.00
2019-01-04T01:21:35.004Z,101414.00
2019-01-04T01:24:34.340Z,101402.00
2019-01-04T01:27:23.206Z,101400.00
2019-01-04T01:30:17.888Z,101396.00
2019-01-04T01:33:16.089Z,101398.00
2019-01-04T01:35:54.201Z,101404.00
2019-01-04T01:38:52.438Z,101407.00
2019-01-04T01:41:41.279Z,101398.00
2019-01-04T01:44:36.203Z,101397.00
2019-01-04T01:47:08.493Z,101391.00
2019-01-04T01:49:43.451Z,101389.00
2019-01-04T01:52:29.505Z,101395.00
2019-01-04T01:54:58.592Z,101402.00
2019-01-04T01:57:27.731Z,101403.00
2019-01-04T01:59:57.096Z,101401.00
2019-01-04T02:02:26.218Z,101403.00
2019-01-04T02:04:55.559Z,101401.00
2019-01-04T02:07:24.899Z,101403.00
2019-01-04T02:09:53.997Z,101400.00
2019-01-04T02:12:23.117Z,101406.00
2019-01-04T02:14:52.217Z,101408.00
2019-01-04T02:17:21.313Z,101416.00
2019-01-04T02:19:50.446Z,101420.00
2019-01-04T02:22:19.566Z,101415.00
2019-01-04T02:24:48.908Z,101402.00
2019-01-04T02:27:18.273Z,101386.00
2019-01-04T02:29:47.660Z,101395.00
2019-01-04T02:32:16.779Z,101390.00
2019-01-04T02:34:46.144Z,101394.00
2019-01-04T02:37:15.506Z,101392.00
2019-01-04T02:39:44.594Z,101392.00
2019-01-04T02:42:13.950Z,101387.00
2019-01-04T02:44:43.033Z,101383.00
2019-01-04T02:47:12.392Z,101379.00
2019-01-04T02:49:41.766Z,101379.00
2019-01-04T02:52:10.878Z,101381.00
2019-01-04T02:54:40.226Z,101385.00
2019-01-04T02:57:09.308Z,101378.00
2019-01-04T02:59:38.658Z,101376.00
2019-01-04T03:02:09.268Z,101369.00
2019-01-04T03:04:38.622Z,101378.00
2019-01-04T03:07:07.733Z,101369.00
2019-01-04T03:09:37.128Z,101371.00
2019-01-04T03:12:06.468Z,101374.00
2019-01-04T03:14:35.612Z,101361.00
2019-01-04T03:17:04.980Z,101363.00
2019-01-04T03:19:34.118Z,101358.00
2019-01-04T03:22:03.487Z,101356.00
2019-01-04T03:24:32.852Z,101351.00
2019-01-04T03:27:01.944Z,101348.00
2019-01-04T03:29:31.324Z,101340.00
2019-01-04T03:32:00.420Z,101350.00
2019-01-04T03:34:29.811Z,101347.00
2019-01-04T03:36:59.147Z,101344.00
2019-01-04T03:39:28.231Z,101340.00
2019-01-04T03:41:57.358Z,101345.00
2019-01-04T03:44:27.116Z,101339.00
2019-01-04T03:46:56.246Z,101331.00
2019-01-04T03:49:25.594Z,101331.00
2019-01-04T03:51:54.966Z,101334.00
2019-01-04T03:54:24.052Z,101322.00
2019-01-04T03:56:53.825Z,101329.00
2019-01-04T03:59:23.191Z,101318.00
2019-01-04T04:01:52.343Z,101327.00
2019-01-04T04:04:21.680Z,101326.00
2019-01-04T04:06:50.823Z,101319.00
2019-01-04T04:09:20.167Z,101323.00
2019-01-04T04:11:49.537Z,101321.00
2019-01-04T04:14:18.655Z,101314.00
2019-01-04T04:16:47.757Z,101300.00
2019-01-04T04:19:16.874Z,101309.00
2019-01-04T04:21:46.404Z,101306.00
2019-01-04T04:24:15.766Z,101308.00
2019-01-04T04:26:44.872Z,101306.00
2019-01-04T04:29:14.214Z,101298.00
2019-01-04T04:31:43.351Z,101293.00
2019-01-04T04:34:12.544Z,101279.00
2019-01-04T04:36:42.211Z,101280.00
2019-01-04T04:39:11.296Z,101270.00
2019-01-04T04:41:40.649Z,101273.00
2019-01-04T04:44:09.764Z,101270.00
2019-01-04T04:46:38.898Z,101273.00
2019-01-04T04:49:07.989Z,101263.00
2019-01-04T04:51:37.347Z,101269.00
2019-01-04T04:54:06.459Z,101270.00
2019-01-04T04:56:35.540Z,101273.00
2019-01-04T04:59:04.922Z,101263.00
2019-01-04T05:01:34.378Z,101259.00
2019-01-04T05:04:03.750Z,101255.00
2019-01-04T05:06:33.114Z,101263.00
2019-01-04T05:09:02.236Z,101259.00
2019-01-04T05:11:31.610Z,101254.00
2019-01-04T05:14:00.725Z,101256.00
2019-01-04T05:16:29.816Z,101250.00
2019-01-04T05:18:59.188Z,101246.00
2019-01-04T05:21:28.683Z,101247.00
2019-01-04T05:23:58.031Z,101258.00
2019-01-04T05:26:27.363Z,101252.00
2019-01-04T05:28:56.460Z,101259.00
2019-01-04T05:31:25.553Z,101254.00
2019-01-04T05:33:54.690Z,101253.00
2019-01-04T05:36:23.804Z,101253.00
2019-01-04T05:38:52.926Z,101262.00
2019-01-04T05:41:22.744Z,101247.00
2019-01-04T05:43:51.866Z,101253.00
2019-01-04T05:46:20.957Z,101257.00
2019-01-04T05:48:50.117Z,101254.00
2019-01-04T05:51:19.561Z,101247.00
2019-01-04T05:53:55.641Z,101258.00
2019-01-04T05:56:26.016Z,101253.00
2019-01-04T05:58:55.180Z,101239.00
2019-01-04T06:01:24.321Z,101250.00
2019-01-04T06:03:53.420Z,101251.00
2019-01-04T06:06:22.987Z,101253.00
2019-01-04T06:08:59.702Z,101244.00
2019-01-04T06:11:28.844Z,101241.00
2019-01-04T06:13:58.206Z,101241.00
2019-01-04T06:16:29.711Z,101246.00
2019-01-04T06:18:58.704Z,101243.00
2019-01-04T06:21:27.821Z,101257.00
2019-01-04T06:23:57.197Z,101253.00
2019-01-04T06:26:26.295Z,101249.00
2019-01-04T06:28:55.425Z,101240.00
2019-01-04T06:31:24.528Z,101235.00
2019-01-04T06:33:53.621Z,101247.00
2019-01-04T06:36:23.008Z,101238.00
2019-01-04T06:38:52.114Z,101246.00
2019-01-04T06:41:21.481Z,101233.00
2019-01-04T06:43:50.842Z,101234.00
2019-01-04T06:46:19.925Z,101236.00
2019-01-04T06:48:49.290Z,101244.00
2019-01-04T06:51:18.397Z,101246.00
2019-01-04T06:53:47.761Z,101243.00
2019-01-04T06:56:16.845Z,101249.00
2019-01-04T06:58:46.190Z,101248.00
2019-01-04T07:01:15.957Z,101248.00
2019-01-04T07:03:45.313Z,101251.00
2019-01-04T07:06:14.393Z,101256.00
2019-01-04T07:08:43.762Z,101243.00
2019-01-04T07:11:12.873Z,101236.00
2019-01-04T07:13:42.359Z,101237.00
2019-01-04T07:16:11.442Z,101231.00
2019-01-04T07:18:40.825Z,101240.00
2019-01-04T07:21:09.952Z,101244.00
2019-01-04T07:23:39.034Z,101240.00
2019-01-04T07:26:08.379Z,101236.00
2019-01-04T07:28:38.156Z,101240.00
2019-01-04T07:31:07.274Z,101247.00
2019-01-04T07:33:36.708Z,101241.00
2019-01-04T07:36:06.041Z,101245.00
2019-01-04T07:38:35.194Z,101237.00
2019-01-04T07:41:04.522Z,101232.00
2019-01-04T07:43:33.645Z,101239.00
2019-01-04T07:46:02.976Z,101222.00
2019-01-04T07:48:32.114Z,101231.00
2019-01-04T07:51:01.460Z,101231.00
2019-01-04T07:53:30.847Z,101237.00
2019-01-04T07:56:00.618Z,101234.00
2019-01-04T07:58:29.918Z,101226.00
2019-01-04T08:00:59.000Z,101218.00
2019-01-04T08:03:28.146Z,101211.00
2019-01-04T08:05:57.865Z,101218.00
2019-01-04T08:08:27.220Z,101206.00
2019-01-04T08:10:56.302Z,101217.00
2019-01-04T08:13:25.440Z,101218.00
2019-01-04T08:15:54.553Z,101201.00
2019-01-04T08:18:23.685Z,101199.00
2019-01-04T08:20:53.125Z,101204.00
2019-01-04T08:23:22.259Z,101213.00
2019-01-04T08:25:51.621Z,101209.00
2019-01-04T08:28:20.720Z,101212.00
2019-01-04T08:30:50.054Z,101202.00
2019-01-04T08:33:19.415Z,101210.00
2019-01-04T08:35:48.488Z,101199.00
2019-01-04T08:38:17.853Z,101194.00
2019-01-04T08:40:47.188Z,101183.00
2019-01-04T08:43:16.297Z,101181.00
2019-01-04T08:45:45.388Z,101176.00
2019-01-04T08:48:16.981Z,101175.00
2019-01-04T08:50:46.350Z,101172.00
2019-01-04T08:53:15.733Z,101169.00
2019-01-04T08:55:44.846Z,101172.00
2019-01-04T08:58:14.213Z,101173.00
2019-01-04T09:00:43.291Z,101164.00
2019-01-04T09:03:12.405Z,101172.00
2019-01-04T09:05:41.521Z,101173.00
2019-01-04T09:08:10.892Z,101159.00
2019-01-04T09:10:43.356Z,101167.00
2019-01-04T09:13:12.493Z,101160.00
2019-01-04T09:15:41.591Z,101150.00
2019-01-04T09:18:10.979Z,101152.00
2019-01-04T09:20:40.087Z,101158.00
2019-01-04T09:23:09.444Z,101155.00
2019-01-04T09:25:38.672Z,101158.00
2019-01-04T09:28:07.742Z,101157.00
2019-01-04T09:30:37.102Z,101162.00
2019-01-04T09:33:06.266Z,101159.00
2019-01-04T09:35:43.604Z,101169.00
2019-01-04T09:38:12.944Z,101162.00
2019-01-04T09:40:42.289Z,101162.00
2019-01-04T09:43:12.639Z,101154.00
2019-01-04T09:45:41.721Z,101154.00
2019-01-04T09:48:10.931Z,101155.00
2019-01-04T09:50:40.426Z,101133.00
2019-01-04T09:53:09.786Z,101116.00
2019-01-04T09:55:39.402Z,101116.00
2019-01-04T09:58:08.489Z,101116.00
2019-01-04T10:00:37.889Z,101110.00
2019-01-04T10:03:07.240Z,101110.00
2019-01-04T10:05:36.578Z,101111.00
2019-01-04T10:08:05.942Z,101099.00
2019-01-04T10:10:35.307Z,101092.00
2019-01-04T10:13:05.495Z,101083.00
2019-01-04T10:15:34.617Z,101070.00
2019-01-04T10:18:03.723Z,101058.00
2019-01-04T10:20:32.855Z,101064.00
2019-01-04T10:23:02.224Z,101047.00
2019-01-04T10:25:31.309Z,101036.00
2019-01-04T10:28:00.720Z,101031.00
2019-01-04T10:30:30.108Z,101028.00
2019-01-04T10:32:59.222Z,101024.00
2019-01-04T10:35:28.334Z,101014.00
2019-01-04T10:37:57.529Z,101022.00
2019-01-04T10:40:26.960Z,101013.00
2019-01-04T10:42:56.074Z,101004.00
2019-01-04T10:45:25.190Z,100999.00
2019-01-04T10:47:54.646Z,100991.00
2019-01-04T10:50:23.772Z,100992.00
2019-01-04T10:52:52.881Z,100977.00
2019-01-04T10:55:22.088Z,100982.00
2019-01-04T10:57:51.842Z,100976.00
2019-01-04T11:00:21.263Z,100963.00
2019-01-04T11:02:50.602Z,100967.00
2019-01-04T11:05:19.730Z,100949.00
2019-01-04T11:07:49.093Z,100959.00
2019-01-04T11:10:18.233Z,100934.00
2019-01-04T11:12:47.320Z,100928.00
2019-01-04T11:15:16.451Z,100938.00
2019-01-04T11:17:45.571Z,100938.00
2019-01-04T11:20:43.085Z,100939.00
2019-01-04T11:23:34.874Z,100921.00
2019-01-04T11:26:19.220Z,100920.00
2019-01-04T11:28:56.953Z,100917.00
2019-01-04T11:31:52.446Z,100908.00
2019-01-04T11:34:39.769Z,100904.00
2019-01-04T11:37:20.388Z,100888.00
2019-01-04T11:40:12.444Z,100888.00
2019-01-04T11:42:44.710Z,100889.00
2019-01-04T11:45:19.661Z,100878.00
2019-01-04T11:48:04.073Z,100866.00
2019-01-04T11:50:57.709Z,100863.00
2019-01-04T11:53:26.823Z,100855.00
2019-01-04T11:55:56.130Z,100864.00
2019-01-04T11:58:25.221Z,100854.00
2019-01-04T12:00:54.939Z,100862.00
2019-01-04T12:03:24.281Z,100867.00
2019-01-04T12:05:53.411Z,100872.00
2019-01-04T12:08:22.529Z,100861.00
2019-01-04T12:10:51.640Z,100851.00
2019-01-04T12:13:20.762Z,100844.00
2019-01-04T12:15:49.848Z,100831.00
2019-01-04T12:18:19.222Z,100826.00
2019-01-04T12:20:48.580Z,100827.00
2019-01-04T12:23:17.685Z,100814.00
2019-01-04T12:25:47.043Z,100813.00
2019-01-04T12:28:16.130Z,100810.00
2019-01-04T12:30:45.256Z,100803.00
2019-01-04T12:33:14.621Z,100806.00
2019-01-04T12:35:43.734Z,100799.00
2019-01-04T12:38:13.102Z,100788.00
2019-01-04T12:40:42.220Z,100797.00
2019-01-04T12:43:11.668Z,100784.00
2019-01-04T12:45:41.006Z,100782.00
2019-01-04T12:48:10.097Z,100782.00
2019-01-04T12:50:39.912Z,100765.00
2019-01-04T12:53:09.031Z,100749.00
2019-01-04T12:55:38.118Z,100747.00
2019-01-04T12:58:07.256Z,100738.00
2019-01-04T13:00:36.374Z,100740.00
2019-01-04T13:03:05.734Z,100740.00
2019-01-04T13:05:34.925Z,100731.00
2019-01-04T13:08:04.385Z,100722.00
2019-01-04T13:10:33.803Z,100712.00
2019-01-04T13:13:02.915Z,100714.00
2019-01-04T13:15:32.591Z,100698.00
2019-01-04T13:18:02.311Z,100688.00
2019-01-04T13:20:31.659Z,100691.00
2019-01-04T13:23:01.099Z,100687.00
2019-01-04T13:25:30.478Z,100688.00
2019-01-04T13:27:59.584Z,100691.00
2019-01-04T13:30:28.718Z,100697.00
2019-01-04T13:32:58.075Z,100684.00
2019-01-04T13:35:27.176Z,100693.00
2019-01-04T13:37:56.517Z,100712.00
2019-01-04T13:40:25.680Z,100718.00
2019-01-04T13:43:01.683Z,100720.00
2019-01-04T13:45:31.039Z,100719.00
2019-01-04T13:58:37.966Z,100722.00
2019-01-04T14:01:07.330Z,100718.00
2019-01-04T14:03:36.660Z,100711.00
2019-01-04T14:06:05.769Z,100716.00
2019-01-04T14:08:35.237Z,100718.00
2019-01-04T14:11:04.320Z,100715.00
2019-01-04T14:13:33.433Z,100711.00
2019-01-04T14:16:02.550Z,100719.00
2019-01-04T14:18:31.668Z,100736.00
2019-01-04T14:21:01.003Z,100726.00
2019-01-04T14:23:30.114Z,100719.00
2019-01-04T14:25:59.192Z,100722.00
2019-01-04T14:28:28.277Z,100709.00
2019-01-04T14:30:57.621Z,100714.00
2019-01-04T14:33:26.700Z,100705.00
2019-01-04T14:35:56.072Z,100698.00
2019-01-04T14:38:25.788Z,100698.00
2019-01-04T14:40:54.902Z,100695.00
2019-01-04T14:43:24.273Z,100695.00
2019-01-04T14:45:53.613Z,100698.00
2019-01-04T14:48:22.684Z,100697.00
2019-01-04T14:50:51.810Z,100706.00
2019-01-04T14:53:20.919Z,100696.00
2019-01-04T14:55:50.048Z,100675.00
2019-01-04T14:58:19.157Z,100689.00
2019-01-04T15:00:48.545Z,100677.00
2019-01-04T15:03:17.898Z,100675.00
2019-01-04T15:05:50.407Z,100669.00
2019-01-04T15:08:17.994Z,100671.00
2019-01-04T15:10:47.069Z,100675.00
2019-01-04T15:13:16.410Z,100669.00
2019-01-04T15:15:45.485Z,100661.00
2019-01-04T15:18:15.044Z,100665.00
2019-01-04T15:20:44.153Z,100654.00
2019-01-04T15:23:13.535Z,100656.00
2019-01-04T15:25:42.610Z,100650.00
2019-01-04T15:28:11.722Z,100663.00
2019-01-04T15:30:41.085Z,100661.00
2019-01-04T15:33:10.186Z,100661.00
2019-01-04T15:35:39.520Z,100667.00
2019-01-04T15:38:08.867Z,100663.00
2019-01-04T15:40:37.976Z,100663.00
2019-01-04T15:43:07.107Z,100655.00
2019-01-04T15:45:36.189Z,100664.00
2019-01-04T15:48:05.570Z,100641.00
2019-01-04T15:50:34.647Z,100639.00
2019-01-04T15:53:03.756Z,100626.00
2019-01-04T15:55:32.882Z,100628.00
2019-01-04T15:58:02.255Z,100624.00
2019-01-04T16:00:31.330Z,100638.00
2019-01-04T16:03:00.451Z,100631.00
2019-01-04T16:05:29.590Z,100615.00
2019-01-04T16:07:58.698Z,100607.00
2019-01-04T16:10:28.035Z,100607.00
2019-01-04T16:12:57.181Z,100608.00
2019-01-04T16:15:26.516Z,100602.00
2019-01-04T16:17:55.624Z,100599.00
2019-01-04T16:20:24.699Z,100598.00
2019-01-04T16:22:53.897Z,100602.00
2019-01-04T16:25:22.949Z,100604.00
2019-01-04T16:27:52.100Z,100605.00
2019-01-04T16:30:21.176Z,100597.00
2019-01-04T16:32:50.534Z,100607.00
2019-01-04T16:35:19.637Z,100594.00
2019-01-04T16:37:49.327Z,100590.00
2019-01-04T16:40:18.661Z,100581.00
2019-01-04T16:42:47.767Z,100581.00
2019-01-04T16:45:17.291Z,100582.00
2019-01-04T16:47:46.412Z,100576.00
2019-01-04T16:50:15.534Z,100590.00
2019-01-04T16:52:44.914Z,100582.00
2019-01-04T16:55:13.993Z,100577.00
2019-01-04T16:57:43.333Z,100587.00
2019-01-04T17:00:12.684Z,100591.00
2019-01-04T17:02:41.802Z,100589.00
2019-01-04T17:05:11.527Z,100579.00
2019-01-04T17:07:40.868Z,100577.00
2019-01-04T17:10:09.948Z,100579.00
2019-01-04T17:12:39.290Z,100576.00
2019-01-04T17:15:08.437Z,100578.00
2019-01-04T17:17:37.592Z,100577.00
2019-01-04T17:20:07.406Z,100581.00
2019-01-04T17:22:36.509Z,100586.00
2019-01-04T17:25:07.433Z,100588.00
2019-01-04T17:27:36.528Z,100580.00
2019-01-04T17:30:09.187Z,100564.00
2019-01-04T17:32:38.268Z,100569.00
2019-01-04T17:35:07.466Z,100589.00
2019-01-04T17:37:36.579Z,100591.00
2019-01-04T17:40:08.855Z,100579.00
2019-01-04T17:42:37.962Z,100589.00
2019-01-04T17:45:08.278Z,100589.00
2019-01-04T17:47:37.360Z,100596.00
2019-01-04T17:50:08.440Z,100579.00
2019-01-04T17:52:38.149Z,100591.00
2019-01-04T17:55:07.304Z,100598.00
2019-01-04T17:57:36.671Z,100594.00
2019-01-04T18:00:09.255Z,100589.00
2019-01-04T18:02:38.584Z,100599.00
2019-01-04T18:05:08.064Z,100592.00
2019-01-04T18:07:37.174Z,100587.00
2019-01-04T18:10:08.963Z,100593.00
2019-01-04T18:12:38.327Z,100594.00
2019-01-04T18:15:07.893Z,100598.00
2019-01-04T18:17:37.227Z,100600.00
2019-01-04T18:20:10.988Z,100601.00
2019-01-04T18:22:40.168Z,100607.00
2019-01-04T18:25:09.603Z,100612.00
2019-01-04T18:27:38.928Z,100605.00
2019-01-04T18:30:09.710Z,100614.00
2019-01-04T18:32:39.040Z,100605.00
2019-01-04T18:35:08.138Z,100606.00
2019-01-04T18:37:37.475Z,100609.00
2019-01-04T18:40:09.770Z,100593.00
2019-01-04T18:42:38.988Z,100603.00
2019-01-04T18:45:08.198Z,100596.00
2019-01-04T18:47:39.440Z,100594.00
2019-01-04T18:50:12.267Z,100589.00
2019-01-04T18:52:41.600Z,100592.00
2019-01-04T18:55:10.986Z,100590.00
2019-01-04T18:57:40.341Z,100594.00
2019-01-04T19:00:10.922Z,100601.00
2019-01-04T19:02:40.279Z,100606.00
2019-01-04T19:05:09.410Z,100605.00
2019-01-04T19:07:38.489Z,100605.00
2019-01-04T19:10:09.788Z,100592.00
2019-01-04T19:12:38.898Z,100611.00
2019-01-04T19:15:09.771Z,100613.00
2019-01-04T19:17:38.887Z,100609.00
2019-01-04T19:20:08.089Z,100604.00
2019-01-04T19:22:37.174Z,100605.00
2019-01-04T19:25:06.900Z,100609.00
2019-01-04T19:27:36.235Z,100606.00
2019-01-04T19:30:07.471Z,100606.00
2019-01-04T19:32:36.867Z,100597.00
2019-01-04T19:35:06.211Z,100605.00
2019-01-04T19:37:35.319Z,100607.00
2019-01-04T19:40:05.582Z,100606.00
2019-01-04T19:42:34.996Z,100597.00
2019-01-04T19:45:05.977Z,100596.00
2019-01-04T19:47:35.334Z,100597.00
2019-01-04T19:50:20.089Z,100600.00
2019-01-04T19:52:49.436Z,100595.00
2019-01-04T19:55:18.775Z,100573.00
2019-01-04T19:57:47.872Z,100580.00
2019-01-04T20:00:17.235Z,100580.00
2019-01-04T20:02:46.360Z,100582.00
2019-01-04T20:05:20.055Z,100581.00
2019-01-04T20:07:57.029Z,100588.00
2019-01-04T20:11:13.225Z,100580.00
2019-01-04T20:13:59.021Z,100579.00
2019-01-04T20:16:49.113Z,100583.00
2019-01-04T20:19:25.740Z,100583.00
2019-01-04T20:22:14.514Z,100582.00
2019-01-04T20:24:48.266Z,100575.00
2019-01-04T20:27:35.507Z,100573.00
2019-01-04T20:30:24.216Z,100572.00
2019-01-04T20:33:13.858Z,100577.00
2019-01-04T20:36:00.963Z,100565.00
2019-01-04T20:38:40.807Z,100573.00
2019-01-04T20:41:23.981Z,100566.00
2019-01-04T20:43:57.649Z,100558.00
2019-01-04T20:46:44.523Z,100549.00
2019-01-04T20:49:31.561Z,100539.00
2019-01-04T20:52:05.281Z,100538.00
2019-01-04T20:54:42.047Z,100541.00
2019-01-04T20:57:15.692Z,100542.00
2019-01-04T20:59:46.460Z,100542.00
2019-01-04T21:02:33.364Z,100538.00
2019-01-04T21:05:04.122Z,100534.00
2019-01-04T21:07:57.235Z,100540.00
2019-01-04T21:10:44.430Z,100527.00
2019-01-04T21:13:15.208Z,100522.00
2019-01-04T21:15:54.826Z,100517.00
2019-01-04T21:18:28.298Z,100515.00
2019-01-04T21:21:15.439Z,100510.00
2019-01-04T21:23:48.873Z,100502.00
2019-01-04T21:26:31.593Z,100500.00
2019-01-04T21:29:05.584Z,100495.00
2019-01-04T21:31:51.651Z,100492.00
2019-01-04T21:34:22.426Z,100488.00
2019-01-04T21:36:55.880Z,100492.00
2019-01-04T21:39:43.168Z,100490.00
2019-01-04T21:42:19.501Z,100483.00
2019-01-04T21:44:59.072Z,100488.00
2019-01-04T21:47:44.593Z,100474.00
2019-01-04T21:50:15.637Z,100469.00
2019-01-04T21:52:55.295Z,100464.00
2019-01-04T21:55:42.601Z,100453.00
2019-01-04T21:58:30.024Z,100456.00
2019-01-04T22:01:00.759Z,100458.00
2019-01-04T22:03:43.788Z,100453.00
2019-01-04T22:06:23.021Z,100447.00
2019-01-04T22:08:53.753Z,100455.00
2019-01-04T22:11:33.584Z,100452.00
2019-01-04T22:14:07.298Z,100446.00
2019-01-04T22:16:56.629Z,100447.00
2019-01-04T22:19:30.401Z,100438.00
2019-01-04T22:22:01.427Z,100433.00
2019-01-04T22:24:47.227Z,100442.00
2019-01-04T22:27:29.893Z,100443.00
2019-01-04T22:30:09.597Z,100438.00
2019-01-04T22:32:49.661Z,100434.00
2019-01-04T22:35:23.657Z,100430.00
2019-01-04T22:38:00.741Z,100418.00
2019-01-04T22:40:31.498Z,100429.00
2019-01-04T22:43:08.430Z,100414.00
2019-01-04T22:45:55.197Z,100408.00
2019-01-04T22:48:31.715Z,100407.00
2019-01-04T22:51:08.152Z,100404.00
2019-01-04T22:53:50.860Z,100397.00
2019-01-04T22:56:37.812Z,100393.00
2019-01-04T22:59:25.003Z,100386.00
2019-01-04T23:02:11.821Z,100388.00
2019-01-04T23:04:57.925Z,100385.00
2019-01-04T23:07:28.907Z,100387.00
2019-01-04T23:09:59.694Z,100396.00
2019-01-04T23:12:36.653Z,100374.00
2019-01-04T23:15:09.788Z,100373.00
2019-01-04T23:17:55.639Z,100376.00
2019-01-04T23:20:29.217Z,100369.00
2019-01-04T23:23:16.204Z,100376.00
2019-01-04T23:26:03.884Z,100371.00
2019-01-04T23:28:51.005Z,100368.00
2019-01-04T23:31:40.039Z,100366.00
2019-01-04T23:34:27.348Z,100362.00
2019-01-04T23:37:09.854Z,100360.00
2019-01-04T23:39:40.697Z,100355.00
2019-01-04T23:42:27.803Z,100360.00
2019-01-04T23:45:01.226Z,100358.00
2019-01-04T23:47:31.978Z,100343.00
2019-01-04T23:50:02.758Z,100336.00
2019-01-04T23:52:36.445Z,100338.00
2019-01-04T23:55:10.233Z,100326.00
2019-01-04T23:57:56.317Z,100330.00
